createdAt,value
2022-12-13T00:00:51.695Z,1002.13
2022-12-13T00:03:51.783Z,1002.13
2022-12-13T00:06:51.702Z,1002.13
2022-12-13T00:09:51.685Z,1002.06
2022-12-13T00:12:51.691Z,1002.03
2022-12-13T00:15:51.695Z,1002.01
2022-12-13T00:18:51.701Z,1002.03
2022-12-13T00:21:51.691Z,1002.07
2022-12-13T00:24:51.689Z,1002.08
2022-12-13T00:27:51.753Z,1002.04
2022-12-13T00:30:51.721Z,1002.07
2022-12-13T00:33:51.672Z,1002
2022-12-13T00:36:51.689Z,1002.04
2022-12-13T00:39:51.679Z,1002.03
2022-12-13T00:42:51.685Z,1002.01
2022-12-13T00:45:51.731Z,1001.96
2022-12-13T00:48:51.679Z,1001.97
2022-12-13T00:51:51.685Z,1001.92
2022-12-13T00:54:51.676Z,1001.9
2022-12-13T00:57:51.662Z,1001.88
2022-12-13T01:00:51.667Z,1001.92
2022-12-13T01:03:51.668Z,1001.94
2022-12-13T01:06:51.681Z,1001.95
2022-12-13T01:09:51.670Z,1001.94
2022-12-13T01:12:51.670Z,1001.91
2022-12-13T01:15:51.676Z,1001.9
2022-12-13T01:18:51.676Z,1001.94
2022-12-13T01:21:51.674Z,1001.95
2022-12-13T01:24:51.668Z,1001.91
2022-12-13T01:27:51.662Z,1001.92
2022-12-13T01:30:51.696Z,1001.92
2022-12-13T01:33:51.679Z,1001.93
2022-12-13T01:36:51.664Z,1001.92
2022-12-13T01:39:51.677Z,1001.94
2022-12-13T01:42:51.665Z,1001.98
2022-12-13T01:45:51.710Z,1001.92
2022-12-13T01:48:51.651Z,1001.9
2022-12-13T01:51:51.672Z,1001.91
2022-12-13T01:54:51.663Z,1001.87
2022-12-13T01:57:51.651Z,1001.88
2022-12-13T02:00:51.663Z,1001.89
2022-12-13T02:03:51.661Z,1001.91
2022-12-13T02:06:51.666Z,1001.91
2022-12-13T02:09:56.568Z,1001.86
2022-12-13T02:12:51.656Z,1001.86
2022-12-13T02:15:51.709Z,1001.81
2022-12-13T02:18:51.662Z,1001.81
2022-12-13T02:21:51.717Z,1001.78
2022-12-13T02:24:51.660Z,1001.75
2022-12-13T02:27:51.782Z,1001.74
2022-12-13T02:30:51.707Z,1001.7
2022-12-13T02:33:51.645Z,1001.72
2022-12-13T02:36:51.648Z,1001.78
2022-12-13T02:39:51.640Z,1001.79
2022-12-13T02:42:51.649Z,1001.77
2022-12-13T02:45:51.654Z,1001.74
2022-12-13T02:48:51.634Z,1001.75
2022-12-13T02:51:51.632Z,1001.72
2022-12-13T02:54:51.635Z,1001.68
2022-12-13T02:57:51.639Z,1001.65
2022-12-13T03:00:51.636Z,1001.65
2022-12-13T03:03:51.676Z,1001.6
2022-12-13T03:06:51.627Z,1001.6
2022-12-13T03:09:51.627Z,1001.53
2022-12-13T03:12:51.632Z,1001.58
2022-12-13T03:15:51.673Z,1001.56
2022-12-13T03:18:51.623Z,1001.56
2022-12-13T03:21:51.615Z,1001.58
2022-12-13T03:24:51.620Z,1001.53
2022-12-13T03:27:51.622Z,1001.53
2022-12-13T03:30:51.712Z,1001.51
2022-12-13T03:33:51.611Z,1001.55
2022-12-13T03:36:51.632Z,1001.54
2022-12-13T03:39:51.608Z,1001.51
2022-12-13T03:42:51.622Z,1001.48
2022-12-13T03:45:51.614Z,1001.48
2022-12-13T03:48:51.618Z,1001.48
2022-12-13T03:51:51.605Z,1001.45
2022-12-13T03:54:51.616Z,1001.43
2022-12-13T03:57:51.607Z,1001.37
2022-12-13T04:00:51.616Z,1001.33
2022-12-13T04:03:51.603Z,1001.38
2022-12-13T04:06:51.608Z,1001.39
2022-12-13T04:09:51.603Z,1001.36
2022-12-13T04:12:51.604Z,1001.33
2022-12-13T04:15:51.665Z,1001.35
2022-12-13T04:18:51.611Z,1001.32
2022-12-13T04:21:51.600Z,1001.35
2022-12-13T04:24:52.072Z,1001.33
2022-12-13T04:27:51.633Z,1001.36
2022-12-13T04:30:52.665Z,1001.37
2022-12-13T04:33:51.612Z,1001.39
2022-12-13T04:36:51.602Z,1001.33
2022-12-13T04:39:51.588Z,1001.31
2022-12-13T04:42:53.904Z,1001.34
2022-12-13T04:45:51.606Z,1001.36
2022-12-13T04:48:51.593Z,1001.42
2022-12-13T04:51:54.670Z,1001.44
2022-12-13T04:54:55.502Z,1001.5
2022-12-13T04:57:51.603Z,1001.43
2022-12-13T05:00:51.634Z,1001.41
2022-12-13T05:03:51.599Z,1001.38
2022-12-13T05:06:51.594Z,1001.35
2022-12-13T05:09:51.603Z,1001.3
2022-12-13T05:12:51.604Z,1001.24
2022-12-13T05:15:55.115Z,1001.27
2022-12-13T05:18:52.558Z,1001.28
2022-12-13T05:21:52.435Z,1001.35
2022-12-13T05:24:52.428Z,1001.38
2022-12-13T05:27:56.946Z,1001.42
2022-12-13T05:30:52.454Z,1001.39
2022-12-13T05:33:52.433Z,1001.39
2022-12-13T05:36:52.440Z,1001.4
2022-12-13T05:39:52.414Z,1001.39
2022-12-13T05:42:52.426Z,1001.39
2022-12-13T05:45:52.467Z,1001.33
2022-12-13T05:48:52.415Z,1001.33
2022-12-13T05:51:52.406Z,1001.31
2022-12-13T05:54:52.408Z,1001.2
2022-12-13T05:57:52.421Z,1001.17
2022-12-13T06:00:52.407Z,1001.25
2022-12-13T06:03:52.523Z,1001.27
2022-12-13T06:06:52.439Z,1001.3
2022-12-13T06:09:52.407Z,1001.31
2022-12-13T06:12:52.396Z,1001.33
2022-12-13T06:15:52.399Z,1001.3
2022-12-13T06:18:56.150Z,1001.28
2022-12-13T06:21:52.408Z,1001.34
2022-12-13T06:24:52.395Z,1001.38
2022-12-13T06:27:52.402Z,1001.39
2022-12-13T06:30:52.497Z,1001.38
2022-12-13T06:33:52.420Z,1001.38
2022-12-13T06:36:52.394Z,1001.4
2022-12-13T06:39:52.398Z,1001.41
2022-12-13T06:42:52.399Z,1001.45
2022-12-13T06:45:52.457Z,1001.46
2022-12-13T06:48:52.398Z,1001.46
2022-12-13T06:51:52.395Z,1001.41
2022-12-13T06:54:56.839Z,1001.45
2022-12-13T06:57:52.400Z,1001.37
2022-12-13T07:00:52.402Z,1001.33
2022-12-13T07:03:52.403Z,1001.34
2022-12-13T07:06:52.441Z,1001.39
2022-12-13T07:09:52.404Z,1001.41
2022-12-13T07:12:52.408Z,1001.4
2022-12-13T07:15:52.474Z,1001.46
2022-12-13T07:18:52.415Z,1001.45
2022-12-13T07:21:52.467Z,1001.48
2022-12-13T07:24:52.421Z,1001.45
2022-12-13T07:27:52.423Z,1001.43
2022-12-13T07:30:52.513Z,1001.49
2022-12-13T07:33:52.426Z,1001.5
2022-12-13T07:36:52.420Z,1001.49
2022-12-13T07:39:52.727Z,1001.45
2022-12-13T07:42:52.423Z,1001.43
2022-12-13T07:45:52.418Z,1001.44
2022-12-13T07:48:52.425Z,1001.43
2022-12-13T07:51:52.418Z,1001.48
2022-12-13T07:54:52.418Z,1001.5
2022-12-13T07:57:52.419Z,1001.42
2022-12-13T08:00:52.431Z,1001.39
2022-12-13T08:03:52.424Z,1001.48
2022-12-13T08:06:52.428Z,1001.51
2022-12-13T08:09:53.070Z,1001.48
2022-12-13T08:12:52.407Z,1001.5
2022-12-13T08:15:52.458Z,1001.49
2022-12-13T08:18:52.436Z,1001.48
2022-12-13T08:21:54.976Z,1001.5
2022-12-13T08:24:52.420Z,1001.52
2022-12-13T08:27:52.404Z,1001.43
2022-12-13T08:30:52.409Z,1001.45
2022-12-13T08:33:52.410Z,1001.5
2022-12-13T08:36:52.412Z,1001.44
2022-12-13T08:39:52.406Z,1001.46
2022-12-13T08:42:52.415Z,1001.41
2022-12-13T08:45:52.411Z,1001.38
2022-12-13T08:48:52.480Z,1001.37
2022-12-13T08:51:52.425Z,1001.37
2022-12-13T08:54:52.407Z,1001.4
2022-12-13T08:57:52.399Z,1001.42
2022-12-13T09:00:52.441Z,1001.42
2022-12-13T09:03:52.416Z,1001.43
2022-12-13T09:06:52.410Z,1001.42
2022-12-13T09:09:54.649Z,1001.39
2022-12-13T09:12:52.419Z,1001.47
2022-12-13T09:15:52.457Z,1001.58
2022-12-13T09:18:54.964Z,1001.57
2022-12-13T09:21:52.438Z,1001.5
2022-12-13T09:24:52.428Z,1001.49
2022-12-13T09:27:52.410Z,1001.45
2022-12-13T09:30:52.414Z,1001.49
2022-12-13T09:33:52.424Z,1001.55
2022-12-13T09:36:52.421Z,1001.67
2022-12-13T09:39:55.282Z,1001.74
2022-12-13T09:43:04.684Z,1001.71
2022-12-13T09:45:52.435Z,1001.74
2022-12-13T09:48:52.406Z,1001.71
2022-12-13T09:51:59.730Z,1001.71
2022-12-13T09:54:52.394Z,1001.71
2022-12-13T09:57:52.417Z,1001.71
2022-12-13T10:00:52.471Z,1001.68
2022-12-13T10:03:52.391Z,1001.65
2022-12-13T10:06:52.398Z,1001.59
2022-12-13T10:09:52.394Z,1001.61
2022-12-13T10:12:52.394Z,1001.59
2022-12-13T10:15:52.393Z,1001.58
2022-12-13T10:18:52.392Z,1001.57
2022-12-13T10:21:52.388Z,1001.52
2022-12-13T10:24:52.404Z,1001.53
2022-12-13T10:27:52.383Z,1001.51
2022-12-13T10:30:52.396Z,1001.54
2022-12-13T10:33:52.382Z,1001.48
2022-12-13T10:36:52.387Z,1001.44
2022-12-13T10:39:52.380Z,1001.35
2022-12-13T10:42:52.395Z,1001.32
2022-12-13T10:45:52.467Z,1001.21
2022-12-13T10:48:52.378Z,1001.22
2022-12-13T10:51:52.371Z,1001.26
2022-12-13T10:54:52.375Z,1001.19
2022-12-13T10:57:52.369Z,1001.16
2022-12-13T11:00:52.389Z,1001.12
2022-12-13T11:03:52.361Z,1001.1
2022-12-13T11:06:52.375Z,1001.07
2022-12-13T11:09:53.128Z,1001.05
2022-12-13T11:12:52.380Z,1001.08
2022-12-13T11:15:52.359Z,1000.95
2022-12-13T11:18:52.363Z,1000.86
2022-12-13T11:21:52.357Z,1000.84
2022-12-13T11:24:52.354Z,1000.8
2022-12-13T11:27:52.359Z,1000.72
2022-12-13T11:30:52.377Z,1000.77
2022-12-13T11:33:52.351Z,1000.71
2022-12-13T11:36:52.351Z,1000.71
2022-12-13T11:39:52.362Z,1000.6
2022-12-13T11:42:52.345Z,1000.51
2022-12-13T11:45:52.360Z,1000.5
2022-12-13T11:48:52.340Z,1000.52
2022-12-13T11:51:52.339Z,1000.55
2022-12-13T11:54:52.335Z,1000.54
2022-12-13T11:57:52.335Z,1000.57
2022-12-13T12:00:52.332Z,1000.49
2022-12-13T12:03:52.386Z,1000.45
2022-12-13T12:06:52.324Z,1000.4
2022-12-13T12:09:52.326Z,1000.23
2022-12-13T12:12:52.322Z,1000.27
2022-12-13T12:15:55.135Z,1000.38
2022-12-13T12:18:52.317Z,1000.27
2022-12-13T12:22:13.074Z,1000.19
2022-12-13T12:24:52.313Z,1000.27
2022-12-13T12:27:52.346Z,1000.2
2022-12-13T12:30:52.356Z,1000.2
2022-12-13T12:33:52.313Z,1000.1
2022-12-13T12:36:52.316Z,1000.1
2022-12-13T12:39:52.308Z,1000.12
2022-12-13T12:43:13.677Z,1000.08
2022-12-13T12:45:56.663Z,1000.01
2022-12-13T12:49:01.004Z,1000.02
2022-12-13T12:51:52.313Z,1000.09
2022-12-13T12:54:52.304Z,999.99
2022-12-13T12:57:52.303Z,999.91
2022-12-13T13:00:52.300Z,999.87
2022-12-13T13:03:52.365Z,999.92
2022-12-13T13:06:52.297Z,999.96
2022-12-13T13:09:54.563Z,999.96
2022-12-13T13:12:52.301Z,999.84
2022-12-13T13:15:52.336Z,999.87
2022-12-13T13:18:52.298Z,999.88
2022-12-13T13:21:52.299Z,999.92
2022-12-13T13:24:52.302Z,999.97
2022-12-13T13:27:52.298Z,999.94
2022-12-13T13:30:52.334Z,999.94
2022-12-13T13:33:52.314Z,999.91
2022-12-13T13:36:52.320Z,999.9
2022-12-13T13:39:52.307Z,999.89
2022-12-13T13:42:52.297Z,999.83
2022-12-13T13:45:52.298Z,999.85
2022-12-13T13:48:52.304Z,999.8
2022-12-13T13:52:23.646Z,999.82
2022-12-13T13:54:52.299Z,999.74
2022-12-13T13:58:09.581Z,999.77
2022-12-13T14:00:52.300Z,999.81
2022-12-13T14:03:52.336Z,999.78
2022-12-13T14:06:52.314Z,999.8
2022-12-13T14:09:52.308Z,999.81
2022-12-13T14:12:52.328Z,999.83
2022-12-13T14:15:52.381Z,999.87
2022-12-13T14:18:52.317Z,999.84
2022-12-13T14:21:52.304Z,999.92
2022-12-13T14:24:52.304Z,999.98
2022-12-13T14:27:52.321Z,999.94
2022-12-13T14:30:56.970Z,999.88
2022-12-13T14:33:52.317Z,999.91
2022-12-13T14:36:52.325Z,999.89
2022-12-13T14:39:52.321Z,999.92
2022-12-13T14:42:52.314Z,999.77
2022-12-13T14:45:52.322Z,999.76
2022-12-13T14:48:52.315Z,999.76
2022-12-13T14:51:52.328Z,999.78
2022-12-13T14:54:57.856Z,999.77
2022-12-13T14:57:52.307Z,999.72
2022-12-13T15:00:52.379Z,999.76
2022-12-13T15:03:52.347Z,999.78
2022-12-13T15:06:52.301Z,999.74
2022-12-13T15:09:52.313Z,999.8
2022-12-13T15:12:52.295Z,999.81
2022-12-13T15:15:52.356Z,999.75
2022-12-13T15:18:52.302Z,999.73
2022-12-13T15:21:54.083Z,999.64
2022-12-13T15:24:52.317Z,999.58
2022-12-13T15:27:52.321Z,999.5
2022-12-13T15:30:52.316Z,999.44
2022-12-13T15:33:52.328Z,999.44
2022-12-13T15:36:52.334Z,999.38
2022-12-13T15:39:52.320Z,999.33
2022-12-13T15:42:52.325Z,999.29
2022-12-13T15:45:52.350Z,999.25
2022-12-13T15:48:52.318Z,999.25
2022-12-13T15:51:52.326Z,999.17
2022-12-13T15:54:52.307Z,999.14
2022-12-13T15:57:52.308Z,999.12
2022-12-13T16:00:52.349Z,999.07
2022-12-13T16:03:52.345Z,999.14
2022-12-13T16:06:52.307Z,999.11
2022-12-13T16:09:52.316Z,999.07
2022-12-13T16:12:52.304Z,999.08
2022-12-13T16:15:52.340Z,999.07
2022-12-13T16:18:52.306Z,999.06
2022-12-13T16:21:52.304Z,999.03
2022-12-13T16:24:52.314Z,999.02
2022-12-13T16:27:52.303Z,999.03
2022-12-13T16:30:52.308Z,999.08
2022-12-13T16:33:52.304Z,999.05
2022-12-13T16:36:52.303Z,998.98
2022-12-13T16:39:52.302Z,998.93
2022-12-13T16:42:52.298Z,998.91
2022-12-13T16:45:52.392Z,998.9
2022-12-13T16:48:52.299Z,998.87
2022-12-13T16:51:52.300Z,998.91
2022-12-13T16:54:52.286Z,998.91
2022-12-13T16:57:52.288Z,998.83
2022-12-13T17:00:52.315Z,998.75
2022-12-13T17:03:52.288Z,998.7
2022-12-13T17:06:54.727Z,998.72
2022-12-13T17:09:52.292Z,998.72
2022-12-13T17:12:52.287Z,998.74
2022-12-13T17:15:59.557Z,998.7
2022-12-13T17:18:52.279Z,998.6
2022-12-13T17:21:52.288Z,998.57
2022-12-13T17:24:52.289Z,998.54
2022-12-13T17:27:52.279Z,998.64
2022-12-13T17:30:54.746Z,998.67
2022-12-13T17:33:52.276Z,998.68
2022-12-13T17:36:52.282Z,998.73
2022-12-13T17:39:52.271Z,998.75
2022-12-13T17:42:52.319Z,998.79
2022-12-13T17:45:52.325Z,998.74
2022-12-13T17:48:52.280Z,998.68
2022-12-13T17:51:52.276Z,998.59
2022-12-13T17:54:52.275Z,998.59
2022-12-13T17:57:52.278Z,998.58
2022-12-13T18:00:52.266Z,998.6
2022-12-13T18:03:52.269Z,998.61
2022-12-13T18:06:52.275Z,998.59
2022-12-13T18:09:52.271Z,998.61
2022-12-13T18:12:52.269Z,998.53
2022-12-13T18:15:52.318Z,998.53
2022-12-13T18:18:54.680Z,998.47
2022-12-13T18:21:52.270Z,998.39
2022-12-13T18:24:52.258Z,998.39
2022-12-13T18:27:56.160Z,998.4
2022-12-13T18:30:52.283Z,998.44
2022-12-13T18:33:52.269Z,998.51
2022-12-13T18:36:52.266Z,998.52
2022-12-13T18:39:54.997Z,998.34
2022-12-13T18:42:52.258Z,998.27
2022-12-13T18:45:52.256Z,998.3
2022-12-13T18:48:52.253Z,998.3
2022-12-13T18:51:52.248Z,998.35
2022-12-13T18:54:54.320Z,998.35
2022-12-13T18:57:52.247Z,998.37
2022-12-13T19:00:52.247Z,998.41
2022-12-13T19:03:52.242Z,998.33
2022-12-13T19:06:52.252Z,998.32
2022-12-13T19:09:54.348Z,998.25
2022-12-13T19:12:52.254Z,998.21
2022-12-13T19:15:52.298Z,998.17
2022-12-13T19:18:52.248Z,998.18
2022-12-13T19:21:52.248Z,998.15
2022-12-13T19:24:52.239Z,998.18
2022-12-13T19:27:52.248Z,998.16
2022-12-13T19:30:52.324Z,998.12
2022-12-13T19:33:52.309Z,998.03
2022-12-13T19:36:52.262Z,998
2022-12-13T19:39:52.254Z,997.97
2022-12-13T19:42:52.260Z,997.94
2022-12-13T19:45:52.249Z,997.92
2022-12-13T19:48:52.250Z,997.91
2022-12-13T19:51:52.257Z,997.87
2022-12-13T19:54:52.260Z,997.84
2022-12-13T19:57:52.250Z,997.78
2022-12-13T20:00:52.270Z,997.71
2022-12-13T20:03:52.245Z,997.68
2022-12-13T20:06:52.239Z,997.69
2022-12-13T20:09:52.239Z,997.69
2022-12-13T20:12:52.240Z,997.68
2022-12-13T20:15:52.280Z,997.63
2022-12-13T20:18:52.248Z,997.68
2022-12-13T20:21:56.660Z,997.63
2022-12-13T20:24:52.246Z,997.59
2022-12-13T20:27:52.251Z,997.6
2022-12-13T20:30:52.258Z,997.59
2022-12-13T20:33:52.239Z,997.52
2022-12-13T20:36:52.247Z,997.5
2022-12-13T20:39:52.244Z,997.54
2022-12-13T20:42:52.236Z,997.53
2022-12-13T20:45:52.236Z,997.45
2022-12-13T20:48:52.252Z,997.4
2022-12-13T20:51:52.242Z,997.42
2022-12-13T20:54:52.245Z,997.45
2022-12-13T20:57:52.237Z,997.48
2022-12-13T21:00:52.254Z,997.39
2022-12-13T21:03:52.240Z,997.33
2022-12-13T21:06:52.227Z,997.29
2022-12-13T21:09:52.228Z,997.26
2022-12-13T21:12:52.229Z,997.21
2022-12-13T21:15:52.260Z,997.19
2022-12-13T21:18:52.226Z,997.21
2022-12-13T21:21:52.229Z,997.26
2022-12-13T21:24:52.222Z,997.23
2022-12-13T21:27:52.231Z,997.09
2022-12-13T21:30:52.224Z,997.06
2022-12-13T21:33:52.224Z,997.05
2022-12-13T21:36:52.534Z,997
2022-12-13T21:39:52.219Z,996.98
2022-12-13T21:42:52.225Z,996.91
2022-12-13T21:45:52.256Z,996.87
2022-12-13T21:48:52.214Z,996.85
2022-12-13T21:51:52.216Z,996.75
2022-12-13T21:54:59.204Z,996.72
2022-12-13T21:57:52.219Z,996.57
2022-12-13T22:00:52.246Z,996.5
2022-12-13T22:03:52.223Z,996.43
2022-12-13T22:06:52.211Z,996.32
2022-12-13T22:09:52.212Z,996.23
2022-12-13T22:12:52.238Z,996.26
2022-12-13T22:15:52.217Z,996.22
2022-12-13T22:18:52.204Z,996.16
2022-12-13T22:21:52.212Z,996.08
2022-12-13T22:24:53.636Z,995.95
2022-12-13T22:27:52.217Z,995.92
2022-12-13T22:30:52.222Z,995.87
2022-12-13T22:33:52.225Z,995.87
2022-12-13T22:36:52.225Z,995.95
2022-12-13T22:39:52.216Z,995.89
2022-12-13T22:42:52.221Z,995.75
2022-12-13T22:45:52.298Z,995.7
2022-12-13T22:48:52.213Z,995.71
2022-12-13T22:51:52.218Z,995.63
2022-12-13T22:54:52.209Z,995.64
2022-12-13T22:57:52.216Z,995.59
2022-12-13T23:00:52.295Z,995.53
2022-12-13T23:03:52.208Z,995.54
2022-12-13T23:06:52.213Z,995.47
2022-12-13T23:09:52.204Z,995.44
2022-12-13T23:12:52.207Z,995.4
2022-12-13T23:15:52.203Z,995.39
2022-12-13T23:19:01.305Z,995.4
2022-12-13T23:21:52.213Z,995.41
2022-12-13T23:24:52.206Z,995.49
2022-12-13T23:27:52.194Z,995.41
2022-12-13T23:30:52.259Z,995.39
2022-12-13T23:33:52.184Z,995.32
2022-12-13T23:36:52.184Z,995.28
2022-12-13T23:39:52.193Z,995.2
2022-12-13T23:42:52.186Z,995.12
2022-12-13T23:45:52.268Z,995.12
2022-12-13T23:48:52.188Z,995.02
2022-12-13T23:51:52.191Z,995.03
2022-12-13T23:54:52.177Z,995.09
2022-12-13T23:57:52.181Z,995.15
